Tarsus, Turkey
Current Conditions -  °F | °C
As of 11:50 PM on Tuesday 21 Oct 2014 (Local Time) from LTAF Reporting Station
Clear Clear  
Wind Chill: 59°   Ceiling: Unl
Heat Index: 59°   Visibility: 6mi
Dew Point: 50°   Wind: 3mph
Humidity: 72%   Direction: 10°N
Pressure: 30.03"   Gusts: NA
Location:  36.92°N, 34.9°E
Report Text: LTAF 212050Z 01003KT CAVOK 15/10 Q1017 NOSIG
Loading
Personal Weather Stations






























Interactive Weather Map
Tropical Storm Tracking
New forecast layout! Learn more

10-Day Weather Forecast

Advertisements
Track Severe Weather on mobile